Time;durP1;ratioP1;P1;durP2;ratioP2;P2;SDS_P1;SDS_P2;PMS_P1;PMS_P2;Temp;Humidity;BMP_temperature;BMP_pressure;BME280_temperature;BME280_humidity;BME280_pressure;Samples;Min_cycle;Max_cycle;Signal;HPM_P1;HPM_P2
2023/07/30 00:02:09;;;;;;;14.77;6.43;;;14.80;99.90;;;;;;7370880;19;20262;-57
2023/07/30 00:04:35;;;;;;;11.10;6.38;;;14.80;99.90;;;;;;7374414;19;20493;-58
2023/07/30 00:07:01;;;;;;;12.63;6.50;;;14.70;99.90;;;;;;7370100;19;20388;-57
2023/07/30 00:09:28;;;;;;;12.43;6.82;;;14.80;99.90;;;;;;7373206;19;20043;-58
2023/07/30 00:11:54;;;;;;;15.30;6.85;;;14.80;99.90;;;;;;7370746;19;20484;-57
2023/07/30 00:14:20;;;;;;;15.88;7.47;;;14.70;99.90;;;;;;7371976;19;20046;-68
2023/07/30 00:16:46;;;;;;;14.95;6.80;;;14.70;99.90;;;;;;7370544;19;20015;-68
2023/07/30 00:19:12;;;;;;;12.55;6.30;;;14.60;99.90;;;;;;7374774;19;20026;-68
2023/07/30 00:21:39;;;;;;;15.27;8.25;;;14.70;99.90;;;;;;7372161;19;20483;-68
2023/07/30 00:24:05;;;;;;;13.77;6.70;;;14.60;99.90;;;;;;7369495;19;20022;-68
2023/07/30 00:26:32;;;;;;;15.85;6.63;;;14.60;99.90;;;;;;7371020;19;20041;-68
2023/07/30 00:28:58;;;;;;;15.75;7.22;;;14.60;99.90;;;;;;7375863;19;20428;-68
2023/07/30 00:31:24;;;;;;;13.88;6.97;;;14.60;99.90;;;;;;7370544;19;20024;-68
2023/07/30 00:33:50;;;;;;;13.75;7.43;;;14.60;99.90;;;;;;7367606;19;20026;-68
2023/07/30 00:36:16;;;;;;;13.30;7.28;;;14.50;99.90;;;;;;7367618;19;20019;-68
2023/07/30 00:38:44;;;;;;;18.23;7.28;;;14.50;99.90;;;;;;7366007;19;20022;-69
2023/07/30 00:41:10;;;;;;;10.85;6.70;;;14.50;99.90;;;;;;7368142;19;20018;-68
2023/07/30 00:43:36;;;;;;;11.65;6.53;;;14.40;99.90;;;;;;7370651;19;20493;-68
2023/07/30 00:46:03;;;;;;;14.98;7.10;;;14.40;99.90;;;;;;7370809;19;20018;-57
2023/07/30 00:48:31;;;;;;;15.77;6.88;;;14.40;99.90;;;;;;7371211;19;20078;-58
2023/07/30 00:50:59;;;;;;;12.98;7.00;;;14.40;99.90;;;;;;7367974;19;20030;-57
2023/07/30 00:53:29;;;;;;;16.40;7.50;;;14.30;99.90;;;;;;7366322;19;20469;-57
2023/07/30 00:55:56;;;;;;;15.07;7.53;;;14.40;99.90;;;;;;7371236;19;20382;-57
2023/07/30 00:58:23;;;;;;;14.90;7.47;;;14.40;99.90;;;;;;7371060;19;20037;-57
2023/07/30 01:00:53;;;;;;;16.70;6.55;;;14.30;99.90;;;;;;7369981;19;20071;-57
2023/07/30 01:03:19;;;;;;;14.77;7.38;;;14.40;99.90;;;;;;7370567;19;20622;-68
2023/07/30 01:05:46;;;;;;;15.60;6.90;;;14.30;99.90;;;;;;7369610;19;20724;-68
2023/07/30 01:08:12;;;;;;;14.35;7.00;;;14.20;99.90;;;;;;7368580;19;20021;-68
2023/07/30 01:10:40;;;;;;;12.52;6.50;;;14.30;99.90;;;;;;7367680;19;20014;-58
2023/07/30 01:13:09;;;;;;;12.93;7.22;;;14.30;99.90;;;;;;7371617;19;20021;-57
2023/07/30 01:15:37;;;;;;;16.90;7.15;;;14.30;99.90;;;;;;7370127;19;20024;-57
2023/07/30 01:18:03;;;;;;;17.90;7.40;;;14.30;99.90;;;;;;7368301;19;20019;-57
2023/07/30 01:20:33;;;;;;;18.30;8.50;;;14.20;99.90;;;;;;7365874;19;20014;-57
2023/07/30 01:22:59;;;;;;;15.07;6.45;;;14.20;99.90;;;;;;7368367;19;20022;-57
2023/07/30 01:25:30;;;;;;;18.95;8.52;;;14.20;99.90;;;;;;7369737;19;20110;-57
2023/07/30 01:28:01;;;;;;;15.90;6.93;;;14.20;99.90;;;;;;7370312;19;20022;-57
2023/07/30 01:30:40;;;;;;;17.70;6.85;;;14.10;99.90;;;;;;7371141;19;20370;-68
2023/07/30 01:33:07;;;;;;;15.13;7.60;;;14.10;99.90;;;;;;7372869;19;20018;-57
2023/07/30 01:35:36;;;;;;;15.48;6.93;;;14.10;99.90;;;;;;7368467;19;20014;-57
2023/07/30 01:38:05;;;;;;;12.75;6.75;;;14.10;99.90;;;;;;7369653;19;20038;-57
2023/07/30 01:40:32;;;;;;;15.95;7.00;;;14.00;99.90;;;;;;7366019;19;20019;-57
2023/07/30 01:42:59;;;;;;;19.15;7.75;;;14.00;99.90;;;;;;7364327;19;20042;-68
2023/07/30 01:45:25;;;;;;;14.32;6.93;;;14.00;99.90;;;;;;7369273;19;20056;-57
2023/07/30 01:47:52;;;;;;;16.38;6.65;;;13.90;99.90;;;;;;7369446;19;20476;-58
2023/07/30 01:50:18;;;;;;;13.77;6.45;;;13.90;99.90;;;;;;7347653;19;20510;-57
2023/07/30 01:52:44;;;;;;;16.10;7.35;;;13.90;99.90;;;;;;7356956;19;20631;-58
2023/07/30 01:55:11;;;;;;;15.20;6.70;;;13.80;99.90;;;;;;7359459;19;20018;-58
2023/07/30 01:57:37;;;;;;;11.57;6.40;;;13.80;99.90;;;;;;7372327;19;20048;-57
2023/07/30 02:00:05;;;;;;;14.80;6.53;;;13.80;99.90;;;;;;7367422;19;20014;-57
2023/07/30 02:02:32;;;;;;;14.07;6.72;;;13.90;99.90;;;;;;7370129;19;20501;-57
2023/07/30 02:04:58;;;;;;;15.45;6.07;;;13.80;99.90;;;;;;7368556;19;20944;-57
2023/07/30 02:07:24;;;;;;;15.95;7.40;;;13.80;99.90;;;;;;7369694;19;20026;-58
2023/07/30 02:09:50;;;;;;;16.20;6.90;;;13.90;99.90;;;;;;7366447;19;20058;-68
2023/07/30 02:12:17;;;;;;;19.60;6.93;;;13.90;99.90;;;;;;7370067;19;20503;-68
2023/07/30 02:14:44;;;;;;;14.35;6.75;;;13.90;99.90;;;;;;7359906;19;20026;-67
2023/07/30 02:17:10;;;;;;;16.25;6.20;;;13.80;99.90;;;;;;7368453;19;20507;-68
2023/07/30 02:19:36;;;;;;;16.17;6.55;;;13.80;99.90;;;;;;7372559;19;20022;-68
2023/07/30 02:22:02;;;;;;;17.58;6.82;;;13.80;99.90;;;;;;7374282;19;20038;-57
2023/07/30 02:24:31;;;;;;;16.02;6.43;;;13.80;99.90;;;;;;7376377;19;20018;-57
2023/07/30 02:26:58;;;;;;;14.23;6.05;;;13.80;99.90;;;;;;7377275;19;20026;-57
2023/07/30 02:29:25;;;;;;;17.95;6.68;;;13.70;99.90;;;;;;7376237;19;20425;-68
2023/07/30 02:31:51;;;;;;;18.90;6.53;;;13.70;99.90;;;;;;7373813;19;20050;-68
2023/07/30 02:34:17;;;;;;;14.25;6.68;;;13.70;99.90;;;;;;7379184;19;20018;-68
2023/07/30 02:36:44;;;;;;;13.23;5.47;;;13.70;99.90;;;;;;7374130;19;20878;-67
2023/07/30 02:39:10;;;;;;;15.15;6.20;;;13.70;99.90;;;;;;7375813;19;20021;-67
2023/07/30 02:41:36;;;;;;;14.52;6.35;;;13.70;99.90;;;;;;7377516;19;20015;-68
2023/07/30 02:44:02;;;;;;;16.52;6.28;;;13.70;99.90;;;;;;7377376;19;20473;-67
2023/07/30 02:46:30;;;;;;;16.90;6.00;;;13.80;99.90;;;;;;7374918;19;20020;-67
2023/07/30 02:48:56;;;;;;;12.63;6.38;;;13.80;99.90;;;;;;7378265;19;20436;-57
2023/07/30 02:51:22;;;;;;;16.42;6.15;;;13.80;99.90;;;;;;7377630;19;20082;-57
2023/07/30 02:53:53;;;;;;;13.55;5.70;;;13.90;99.90;;;;;;7372731;19;20018;-57
2023/07/30 02:56:19;;;;;;;15.10;6.22;;;13.90;99.90;;;;;;7364037;19;20022;-57
2023/07/30 02:58:45;;;;;;;14.60;5.80;;;14.00;99.90;;;;;;7374210;19;20023;-57
2023/07/30 03:01:12;;;;;;;11.98;5.85;;;14.00;99.90;;;;;;7376602;19;20541;-57
2023/07/30 03:03:39;;;;;;;13.88;5.72;;;14.00;99.90;;;;;;7374757;19;20537;-57
2023/07/30 03:06:05;;;;;;;15.80;6.22;;;14.10;99.90;;;;;;7373195;19;20490;-57
2023/07/30 03:08:31;;;;;;;18.23;6.20;;;14.10;99.90;;;;;;7375059;19;20040;-57
2023/07/30 03:10:59;;;;;;;13.32;5.53;;;14.10;99.90;;;;;;7374962;19;20018;-56
2023/07/30 03:13:26;;;;;;;13.43;5.93;;;14.10;99.90;;;;;;7374392;19;20026;-57
2023/07/30 03:15:52;;;;;;;12.88;5.50;;;14.10;99.90;;;;;;7374291;19;20021;-57
2023/07/30 03:18:18;;;;;;;21.98;5.75;;;14.10;99.90;;;;;;7371636;19;20014;-58
2023/07/30 03:20:45;;;;;;;14.27;5.63;;;14.10;99.90;;;;;;7374377;19;20029;-57
2023/07/30 03:23:11;;;;;;;13.45;5.22;;;14.10;99.90;;;;;;7373305;19;20281;-67
2023/07/30 03:25:37;;;;;;;16.35;4.80;;;14.20;99.90;;;;;;7372458;19;20409;-67
2023/07/30 03:28:04;;;;;;;14.95;5.32;;;14.20;99.90;;;;;;7370475;19;20109;-68
2023/07/30 03:30:30;;;;;;;14.48;5.03;;;14.10;99.90;;;;;;7370790;19;20018;-57
2023/07/30 03:32:57;;;;;;;19.00;5.60;;;14.10;99.90;;;;;;7372523;19;20086;-68
2023/07/30 03:35:23;;;;;;;14.02;5.30;;;14.10;99.90;;;;;;7374083;19;20022;-57
2023/07/30 03:37:49;;;;;;;11.85;4.65;;;14.10;99.90;;;;;;7373327;19;20048;-57
2023/07/30 03:40:15;;;;;;;15.50;4.82;;;14.10;99.90;;;;;;7372084;19;20018;-57
2023/07/30 03:42:42;;;;;;;15.55;5.75;;;14.10;99.90;;;;;;7373820;19;20034;-58
2023/07/30 03:45:08;;;;;;;15.93;5.13;;;14.10;99.90;;;;;;7374709;19;20022;-58
2023/07/30 03:47:34;;;;;;;12.32;4.65;;;14.10;99.90;;;;;;7371755;19;20564;-57
2023/07/30 03:50:01;;;;;;;13.40;5.25;;;14.10;99.90;;;;;;7371529;19;20034;-57
2023/07/30 03:52:27;;;;;;;14.20;5.00;;;14.10;99.90;;;;;;7372484;19;20014;-62
2023/07/30 03:54:53;;;;;;;13.45;5.05;;;14.10;99.90;;;;;;7361810;19;20025;-57
2023/07/30 03:57:19;;;;;;;12.90;5.32;;;14.10;99.90;;;;;;7371415;19;20015;-64
2023/07/30 03:59:46;;;;;;;14.40;5.07;;;14.00;99.90;;;;;;7375271;19;20347;-68
2023/07/30 04:02:15;;;;;;;15.10;4.80;;;14.00;99.90;;;;;;7371208;19;20040;-67
2023/07/30 04:04:46;;;;;;;12.85;5.30;;;13.90;99.90;;;;;;7374499;19;20025;-57
2023/07/30 04:07:12;;;;;;;15.98;4.95;;;13.90;99.90;;;;;;7371051;19;20030;-58
2023/07/30 04:09:38;;;;;;;16.25;4.85;;;13.90;99.90;;;;;;7375441;19;20060;-57
2023/07/30 04:12:05;;;;;;;15.50;5.85;;;13.80;99.90;;;;;;7370746;19;20034;-57
2023/07/30 04:14:31;;;;;;;12.20;4.93;;;13.80;99.90;;;;;;7371101;19;20014;-57
2023/07/30 04:16:57;;;;;;;18.00;5.25;;;13.80;99.90;;;;;;7373061;19;20026;-57
2023/07/30 04:19:24;;;;;;;11.60;5.40;;;13.80;99.90;;;;;;7373048;19;20615;-57
2023/07/30 04:21:50;;;;;;;12.77;5.60;;;13.90;99.90;;;;;;7374117;19;20375;-57
2023/07/30 04:24:18;;;;;;;16.30;5.00;;;13.90;99.90;;;;;;7368520;19;20033;-58
2023/07/30 04:26:44;;;;;;;14.23;4.95;;;14.00;99.90;;;;;;7369314;19;20026;-57
2023/07/30 04:29:11;;;;;;;14.82;5.38;;;14.00;99.90;;;;;;7369537;19;20498;-57
2023/07/30 04:31:37;;;;;;;15.00;5.80;;;14.10;99.90;;;;;;7372294;19;20445;-57
2023/07/30 04:34:03;;;;;;;16.48;5.65;;;14.10;99.90;;;;;;7369732;19;20042;-57
2023/07/30 04:36:30;;;;;;;16.27;5.35;;;14.10;99.90;;;;;;7363763;19;20381;-57
2023/07/30 04:38:57;;;;;;;13.10;5.40;;;14.20;99.90;;;;;;7364915;19;20020;-57
2023/07/30 04:41:30;;;;;;;14.60;5.70;;;14.20;99.90;;;;;;7369395;19;20018;-57
2023/07/30 04:43:57;;;;;;;14.02;6.07;;;14.30;99.90;;;;;;7369602;19;20587;-57
2023/07/30 04:46:28;;;;;;;16.20;5.50;;;14.40;99.90;;;;;;7369749;19;20632;-57
2023/07/30 04:48:54;;;;;;;19.77;6.00;;;14.50;99.90;;;;;;7368459;19;20464;-59
2023/07/30 04:51:20;;;;;;;16.48;6.03;;;14.60;99.90;;;;;;7372242;19;20015;-57
2023/07/30 04:53:47;;;;;;;18.83;6.22;;;14.70;99.90;;;;;;7374284;19;20364;-68
2023/07/30 04:56:13;;;;;;;14.10;5.40;;;14.80;99.90;;;;;;7369326;19;20078;-68
2023/07/30 04:58:39;;;;;;;18.58;5.65;;;14.80;99.90;;;;;;7369769;19;20014;-68
2023/07/30 05:01:06;;;;;;;15.77;5.50;;;14.90;99.90;;;;;;7370356;19;20019;-68
2023/07/30 05:03:32;;;;;;;13.75;4.90;;;15.00;99.90;;;;;;7371219;19;20021;-68
2023/07/30 05:05:59;;;;;;;16.63;6.95;;;15.10;99.90;;;;;;7369525;19;20058;-68
2023/07/30 05:08:26;;;;;;;14.13;5.63;;;15.20;99.90;;;;;;7370291;19;20074;-59
2023/07/30 05:10:52;;;;;;;19.33;5.75;;;15.20;99.90;;;;;;7369999;19;20363;-57
2023/07/30 05:13:18;;;;;;;17.25;5.38;;;15.20;99.90;;;;;;7367931;19;20018;-57
2023/07/30 05:15:44;;;;;;;12.63;5.22;;;15.30;99.90;;;;;;7370793;19;20391;-68
2023/07/30 05:18:13;;;;;;;15.52;5.38;;;15.30;99.90;;;;;;7364165;19;20097;-67
2023/07/30 05:20:39;;;;;;;18.30;6.40;;;15.40;99.90;;;;;;7368874;19;20088;-68
2023/07/30 05:23:06;;;;;;;15.40;5.60;;;15.40;99.90;;;;;;7368601;19;20047;-68
2023/07/30 05:25:33;;;;;;;18.75;5.95;;;15.50;99.90;;;;;;7367244;19;20018;-68
2023/07/30 05:28:00;;;;;;;15.40;6.05;;;15.50;99.90;;;;;;7365586;19;20078;-68
2023/07/30 05:30:26;;;;;;;16.33;6.10;;;15.60;99.90;;;;;;7363694;19;20061;-68
2023/07/30 05:32:52;;;;;;;21.52;6.72;;;15.70;99.90;;;;;;7371555;19;20022;-68
2023/07/30 05:35:18;;;;;;;17.50;6.78;;;15.70;99.90;;;;;;7367092;19;20010;-61
2023/07/30 05:37:45;;;;;;;17.88;7.10;;;15.80;99.90;;;;;;7370856;19;20018;-57
2023/07/30 05:40:11;;;;;;;19.02;5.90;;;15.80;99.90;;;;;;7363996;19;20465;-69
2023/07/30 05:42:37;;;;;;;19.20;5.80;;;15.80;99.90;;;;;;7367309;19;20499;-57
2023/07/30 05:45:04;;;;;;;17.20;6.38;;;15.90;99.90;;;;;;7364932;19;20027;-68
2023/07/30 05:47:30;;;;;;;17.00;5.93;;;15.90;99.90;;;;;;7363942;19;20018;-68
2023/07/30 05:49:56;;;;;;;16.58;6.15;;;16.00;99.90;;;;;;7366196;19;20015;-68
2023/07/30 05:52:23;;;;;;;17.48;6.70;;;16.00;99.90;;;;;;7367183;19;20039;-58
2023/07/30 05:54:49;;;;;;;21.17;6.63;;;16.00;99.90;;;;;;7371594;19;20701;-58
2023/07/30 05:57:15;;;;;;;19.35;6.45;;;16.10;99.90;;;;;;7369842;19;20023;-58
2023/07/30 05:59:41;;;;;;;15.32;5.53;;;16.10;99.90;;;;;;7371311;19;20022;-57
2023/07/30 06:02:08;;;;;;;21.17;6.65;;;16.20;99.90;;;;;;7376008;19;20018;-68
2023/07/30 06:04:35;;;;;;;19.08;6.88;;;16.20;99.90;;;;;;7372789;19;20402;-67
2023/07/30 06:07:03;;;;;;;16.48;6.57;;;16.30;99.90;;;;;;7373772;19;20602;-68
2023/07/30 06:09:29;;;;;;;23.67;6.93;;;16.40;99.90;;;;;;7377010;19;20014;-58
2023/07/30 06:12:02;;;;;;;18.80;6.18;;;16.40;99.90;;;;;;7369275;19;20103;-58
2023/07/30 06:14:28;;;;;;;19.35;6.38;;;16.50;99.90;;;;;;7376149;19;20019;-57
2023/07/30 06:16:54;;;;;;;20.40;6.18;;;16.60;99.90;;;;;;7370736;19;20018;-58
2023/07/30 06:19:21;;;;;;;17.58;6.25;;;16.70;99.90;;;;;;7368891;19;20403;-68
2023/07/30 06:21:47;;;;;;;19.88;7.18;;;16.80;99.90;;;;;;7372187;19;20369;-68
2023/07/30 06:24:13;;;;;;;17.52;5.95;;;17.10;99.90;;;;;;7377587;19;20506;-68
2023/07/30 06:26:40;;;;;;;15.88;6.13;;;17.20;99.90;;;;;;7374249;19;20569;-68
2023/07/30 06:29:06;;;;;;;21.40;6.30;;;17.20;99.90;;;;;;7374703;19;20110;-68
2023/07/30 06:31:32;;;;;;;19.48;5.80;;;17.10;99.90;;;;;;7375680;19;20014;-68
2023/07/30 06:33:58;;;;;;;15.43;5.53;;;17.10;99.90;;;;;;7371951;19;20029;-67
2023/07/30 06:36:28;;;;;;;15.38;5.68;;;17.10;99.90;;;;;;7375239;19;20478;-68
2023/07/30 06:38:54;;;;;;;18.15;6.35;;;16.90;99.90;;;;;;7372803;19;20018;-68
2023/07/30 06:41:21;;;;;;;19.92;6.05;;;16.90;99.90;;;;;;7376794;19;20530;-68
2023/07/30 06:43:47;;;;;;;17.85;5.97;;;17.00;99.90;;;;;;7375836;19;20082;-69
2023/07/30 06:46:14;;;;;;;17.27;5.57;;;17.00;99.90;;;;;;7378792;19;20022;-68
2023/07/30 06:48:40;;;;;;;16.23;6.10;;;17.00;99.90;;;;;;7373402;19;20381;-71
2023/07/30 06:51:07;;;;;;;14.98;8.13;;;17.20;99.90;;;;;;7377494;19;20043;-68
2023/07/30 06:53:33;;;;;;;18.42;5.72;;;17.20;99.90;;;;;;7375993;19;20030;-68
2023/07/30 06:56:00;;;;;;;26.50;6.22;;;17.40;99.90;;;;;;7373532;19;20482;-68
2023/07/30 06:58:27;;;;;;;17.52;5.68;;;17.70;99.90;;;;;;7369119;19;20031;-68
2023/07/30 07:00:53;;;;;;;18.50;4.90;;;17.90;99.90;;;;;;7375567;19;20018;-57
2023/07/30 07:03:19;;;;;;;14.50;4.05;;;18.20;99.90;;;;;;7373658;19;20026;-57
2023/07/30 07:05:56;;;;;;;14.85;4.10;;;18.40;99.90;;;;;;7372961;19;20054;-58
2023/07/30 07:08:22;;;;;;;14.90;4.97;;;18.50;99.90;;;;;;7375691;19;20018;-58
2023/07/30 07:10:49;;;;;;;14.07;4.85;;;18.50;99.90;;;;;;7372534;19;20023;-68
2023/07/30 07:13:16;;;;;;;17.10;4.00;;;18.50;99.90;;;;;;7373601;19;20608;-58
2023/07/30 07:15:43;;;;;;;16.60;4.65;;;18.50;99.90;;;;;;7376755;19;20014;-68
2023/07/30 07:18:10;;;;;;;16.42;4.78;;;18.60;99.90;;;;;;7370707;19;20074;-68
2023/07/30 07:20:37;;;;;;;15.15;4.35;;;18.60;99.90;;;;;;7374954;19;20503;-66
2023/07/30 07:23:03;;;;;;;16.50;4.40;;;18.70;99.90;;;;;;7373066;19;20074;-67
2023/07/30 07:25:30;;;;;;;15.65;4.15;;;18.70;99.90;;;;;;7374870;19;20028;-59
2023/07/30 07:27:56;;;;;;;15.32;5.28;;;18.70;99.90;;;;;;7374501;19;20038;-58
2023/07/30 07:30:23;;;;;;;14.40;4.18;;;18.80;99.90;;;;;;7374997;19;20022;-58
2023/07/30 07:32:51;;;;;;;14.18;3.72;;;18.90;99.90;;;;;;7375056;19;20019;-58
2023/07/30 07:35:21;;;;;;;14.02;3.65;;;18.90;99.90;;;;;;7373381;19;20019;-58
2023/07/30 07:37:47;;;;;;;12.73;3.88;;;19.00;99.90;;;;;;7370874;19;20071;-58
2023/07/30 07:40:14;;;;;;;14.82;4.20;;;19.40;99.90;;;;;;7367343;19;20425;-58
2023/07/30 07:42:40;;;;;;;16.20;4.00;;;20.10;99.90;;;;;;7374402;19;20466;-59
2023/07/30 07:45:07;;;;;;;16.45;5.13;;;20.60;99.90;;;;;;7367748;19;20019;-58
2023/07/30 07:47:33;;;;;;;10.15;3.28;;;21.00;99.90;;;;;;7370809;19;20057;-58
2023/07/30 07:50:00;;;;;;;13.27;3.45;;;20.70;99.90;;;;;;7367080;19;20029;-58
2023/07/30 07:52:26;;;;;;;13.43;3.05;;;20.40;99.90;;;;;;7368904;19;20022;-58
2023/07/30 07:54:52;;;;;;;13.75;3.70;;;20.30;99.90;;;;;;7371635;19;20018;-67
2023/07/30 07:57:18;;;;;;;10.32;2.60;;;20.30;99.90;;;;;;7373201;19;20030;-68
2023/07/30 07:59:45;;;;;;;11.73;3.17;;;20.40;99.90;;;;;;7372462;19;20036;-68
2023/07/30 08:02:12;;;;;;;9.63;2.80;;;20.70;99.90;;;;;;7373388;19;20018;-67
2023/07/30 08:04:38;;;;;;;13.18;3.58;;;20.80;99.90;;;;;;7373855;19;20408;-67
2023/07/30 08:07:05;;;;;;;10.57;2.47;;;21.00;99.90;;;;;;7375170;19;20883;-67
2023/07/30 08:09:32;;;;;;;11.52;2.63;;;21.30;99.90;;;;;;7375506;19;20101;-69
2023/07/30 08:12:02;;;;;;;10.18;2.95;;;21.80;99.90;;;;;;7374442;19;20023;-68
2023/07/30 08:14:28;;;;;;;12.32;3.80;;;21.90;99.90;;;;;;7374304;19;20022;-58
2023/07/30 08:16:57;;;;;;;14.82;3.25;;;21.70;99.90;;;;;;7365089;19;20610;-68
2023/07/30 08:19:24;;;;;;;10.57;3.03;;;21.50;99.90;;;;;;7368148;19;20046;-57
2023/07/30 08:21:50;;;;;;;11.95;3.20;;;21.50;99.90;;;;;;7372155;19;20111;-68
2023/07/30 08:24:16;;;;;;;9.63;2.83;;;21.70;99.90;;;;;;7367516;19;20026;-68
2023/07/30 08:26:42;;;;;;;10.68;3.45;;;21.60;99.90;;;;;;7356244;19;20022;-66
2023/07/30 08:29:10;;;;;;;12.50;3.35;;;21.50;99.90;;;;;;7362832;19;20022;-68
2023/07/30 08:31:36;;;;;;;12.75;3.17;;;21.40;99.90;;;;;;7368019;19;20750;-68
2023/07/30 08:34:02;;;;;;;13.13;3.50;;;21.20;99.90;;;;;;7365281;19;20041;-68
2023/07/30 08:36:28;;;;;;;12.93;4.10;;;21.00;99.90;;;;;;7366683;19;20389;-68
2023/07/30 08:38:55;;;;;;;15.15;3.78;;;20.90;99.90;;;;;;7367981;19;20018;-57
2023/07/30 08:41:22;;;;;;;11.75;3.15;;;20.80;99.90;;;;;;7370372;19;20445;-58
2023/07/30 08:43:48;;;;;;;16.08;4.15;;;20.50;99.90;;;;;;7372839;19;20102;-58
2023/07/30 08:46:16;;;;;;;15.18;3.00;;;20.20;99.90;;;;;;7370966;19;20030;-58
2023/07/30 08:48:42;;;;;;;12.48;2.90;;;20.10;99.90;;;;;;7371725;19;20070;-57
2023/07/30 08:51:10;;;;;;;12.35;3.13;;;19.80;99.90;;;;;;7373450;19;20021;-68
2023/07/30 08:53:36;;;;;;;7.63;3.03;;;19.80;99.90;;;;;;7373538;19;20594;-68
2023/07/30 08:56:05;;;;;;;10.95;3.55;;;19.90;99.90;;;;;;7374671;19;20019;-69
2023/07/30 08:58:34;;;;;;;14.60;4.13;;;19.80;99.90;;;;;;7369927;19;20018;-68
2023/07/30 09:01:06;;;;;;;11.93;3.50;;;19.60;99.90;;;;;;7367136;19;20041;-68
2023/07/30 09:03:37;;;;;;;14.63;3.88;;;19.60;99.90;;;;;;7371692;19;20018;-68
2023/07/30 09:06:03;;;;;;;11.75;3.58;;;19.80;99.90;;;;;;7372858;19;20018;-69
2023/07/30 09:08:32;;;;;;;10.43;3.55;;;19.90;99.90;;;;;;7373641;19;20019;-68
2023/07/30 09:11:10;;;;;;;11.40;3.38;;;19.90;99.90;;;;;;7370203;19;21471;-68
2023/07/30 09:13:38;;;;;;;11.80;3.58;;;19.80;99.90;;;;;;7370525;19;20026;-68
2023/07/30 09:16:13;;;;;;;14.35;3.67;;;19.80;99.90;;;;;;7369411;19;20057;-58
2023/07/30 09:18:46;;;;;;;11.85;3.30;;;19.80;99.90;;;;;;7363348;19;20025;-59
2023/07/30 09:21:13;;;;;;;12.68;3.63;;;19.70;99.90;;;;;;7367887;19;20030;-58
2023/07/30 09:23:42;;;;;;;13.00;4.13;;;19.50;99.90;;;;;;7369176;19;20026;-58
2023/07/30 09:26:09;;;;;;;8.95;3.05;;;19.40;99.90;;;;;;7370149;19;20595;-58
2023/07/30 09:28:35;;;;;;;9.85;3.50;;;19.30;99.90;;;;;;7368741;19;20379;-58
2023/07/30 09:31:06;;;;;;;14.35;3.45;;;19.20;99.90;;;;;;7366620;19;20050;-57
2023/07/30 09:33:33;;;;;;;9.52;3.53;;;19.30;99.90;;;;;;7366972;19;20028;-58
2023/07/30 09:36:02;;;;;;;12.82;3.83;;;19.30;99.90;;;;;;7369172;19;20503;-58
2023/07/30 09:38:33;;;;;;;6.22;2.75;;;19.30;99.90;;;;;;7367237;19;20352;-58
2023/07/30 09:41:03;;;;;;;11.70;3.47;;;19.30;99.90;;;;;;7367002;19;20022;-58
2023/07/30 09:43:33;;;;;;;10.75;3.50;;;19.30;99.90;;;;;;7370029;19;20021;-58
2023/07/30 09:46:05;;;;;;;10.00;2.75;;;19.10;99.90;;;;;;7368605;19;20022;-58
2023/07/30 09:48:32;;;;;;;10.60;3.42;;;18.80;99.90;;;;;;7374155;19;20019;-69
2023/07/30 09:51:02;;;;;;;10.15;3.30;;;17.60;99.90;;;;;;7369607;19;20018;-69
2023/07/30 09:53:34;;;;;;;9.15;3.15;;;16.90;99.90;;;;;;7370343;19;20078;-68
2023/07/30 09:56:07;;;;;;;8.65;2.25;;;16.20;99.90;;;;;;7366422;19;20498;-68
2023/07/30 09:58:33;;;;;;;7.63;2.72;;;15.80;99.90;;;;;;7368276;19;20498;-68
2023/07/30 10:01:01;;;;;;;8.05;2.38;;;15.60;99.90;;;;;;7368974;19;20019;-69
2023/07/30 10:03:27;;;;;;;10.65;2.47;;;15.40;99.90;;;;;;7371114;19;20017;-70
2023/07/30 10:06:07;;;;;;;10.40;2.58;;;15.10;99.90;;;;;;7367800;19;20087;-69
2023/07/30 10:08:39;;;;;;;10.70;2.67;;;15.00;99.90;;;;;;7368987;19;20023;-69
2023/07/30 10:11:08;;;;;;;10.80;3.00;;;14.90;99.90;;;;;;7363523;19;20414;-69
2023/07/30 10:13:37;;;;;;;9.30;2.88;;;14.90;99.90;;;;;;7369077;19;20668;-69
2023/07/30 10:16:10;;;;;;;9.77;2.67;;;15.00;99.90;;;;;;7367923;19;20023;-68
2023/07/30 10:18:40;;;;;;;9.07;2.75;;;15.10;99.90;;;;;;7367850;19;20036;-68
2023/07/30 10:21:21;;;;;;;9.80;3.22;;;15.30;99.90;;;;;;7366390;19;20038;-68
2023/07/30 10:23:58;;;;;;;10.75;3.40;;;15.50;99.90;;;;;;7368142;19;20021;-68
2023/07/30 10:26:36;;;;;;;14.10;3.08;;;15.70;99.90;;;;;;7369459;19;20029;-69
2023/07/30 10:29:12;;;;;;;10.48;3.35;;;15.90;99.90;;;;;;7362802;19;20019;-68
2023/07/30 10:31:40;;;;;;;11.07;3.00;;;16.10;99.90;;;;;;7365885;19;20845;-57
2023/07/30 10:34:11;;;;;;;11.32;3.85;;;16.50;99.90;;;;;;7366054;19;20014;-69
2023/07/30 10:36:49;;;;;;;10.40;3.00;;;17.30;99.90;;;;;;7363792;19;20018;-68
2023/07/30 10:39:21;;;;;;;9.88;3.08;;;17.80;99.90;;;;;;7365752;19;20384;-68
2023/07/30 10:41:57;;;;;;;13.10;3.03;;;18.30;99.90;;;;;;7372869;19;20043;-68
2023/07/30 10:44:35;;;;;;;10.90;3.13;;;18.90;99.90;;;;;;7378749;19;20026;-58
2023/07/30 10:47:03;;;;;;;9.57;2.63;;;19.40;99.90;;;;;;7372827;19;20018;-57
2023/07/30 10:49:35;;;;;;;8.23;2.30;;;19.80;99.90;;;;;;7372035;19;20018;-58
2023/07/30 10:52:02;;;;;;;10.02;2.90;;;20.20;99.90;;;;;;7373517;19;20030;-57
2023/07/30 10:54:34;;;;;;;11.30;3.22;;;20.70;99.90;;;;;;7376907;19;20385;-67
2023/07/30 10:57:00;;;;;;;10.43;2.83;;;20.40;99.90;;;;;;7369824;19;20029;-67
2023/07/30 10:59:36;;;;;;;9.90;2.65;;;20.70;99.90;;;;;;7373704;19;20023;-57
2023/07/30 11:02:03;;;;;;;7.95;3.00;;;20.70;99.90;;;;;;7368575;19;20019;-58
2023/07/30 11:04:34;;;;;;;14.38;2.90;;;20.90;99.90;;;;;;7376395;19;20021;-67
2023/07/30 11:07:00;;;;;;;7.78;2.40;;;21.10;99.90;;;;;;7370338;19;20597;-68
2023/07/30 11:09:28;;;;;;;8.05;2.25;;;21.10;99.90;;;;;;7375211;19;20014;-68
2023/07/30 11:11:55;;;;;;;10.98;2.55;;;21.10;99.90;;;;;;7374329;19;20403;-68
2023/07/30 11:14:25;;;;;;;8.27;2.40;;;21.20;99.90;;;;;;7374135;19;20029;-68
2023/07/30 11:17:00;;;;;;;9.02;2.15;;;21.80;99.90;;;;;;7370774;19;20071;-67
2023/07/30 11:19:27;;;;;;;12.10;2.28;;;22.00;99.90;;;;;;7372060;19;20018;-67
2023/07/30 11:21:56;;;;;;;8.73;1.88;;;22.20;99.90;;;;;;7370280;19;20019;-67
2023/07/30 11:24:33;;;;;;;6.68;1.80;;;22.40;99.90;;;;;;7375209;19;20022;-67
2023/07/30 11:27:01;;;;;;;10.45;2.13;;;22.00;99.90;;;;;;7373170;19;20019;-67
2023/07/30 11:29:28;;;;;;;10.40;2.47;;;22.20;99.90;;;;;;7369790;19;20011;-57
2023/07/30 11:31:58;;;;;;;8.93;2.03;;;22.20;99.90;;;;;;7371334;19;20434;-58
2023/07/30 11:34:26;;;;;;;;;;;22.50;99.90;;;;;;7375058;19;20498;-57
2023/07/30 11:36:54;;;;;;;9.52;2.10;;;22.50;99.90;;;;;;7359261;19;19930;-58
2023/07/30 11:39:21;;;;;;;9.13;2.22;;;23.00;99.90;;;;;;7369148;19;20015;-57
2023/07/30 11:41:47;;;;;;;6.32;1.73;;;23.10;99.90;;;;;;7368268;19;20020;-58
2023/07/30 11:44:34;;;;;;;8.43;2.13;;;23.20;99.90;;;;;;7370048;19;20071;-58
2023/07/30 11:47:01;;;;;;;7.15;1.80;;;23.20;99.90;;;;;;7371541;19;20581;-58
2023/07/30 11:49:27;;;;;;;6.95;1.83;;;23.40;99.90;;;;;;7369708;19;20022;-58
2023/07/30 11:52:05;;;;;;;6.13;1.85;;;23.10;99.90;;;;;;7369555;19;20422;-66
2023/07/30 11:54:32;;;;;;;7.07;2.05;;;23.20;99.90;;;;;;7375188;19;20111;-66
2023/07/30 11:56:58;;;;;;;7.30;2.08;;;23.60;99.90;;;;;;7370300;19;20022;-68
2023/07/30 11:59:27;;;;;;;7.70;1.92;;;23.80;99.90;;;;;;7370916;19;20404;-67
2023/07/30 12:01:54;;;;;;;8.40;2.72;;;24.00;99.90;;;;;;7368512;19;20018;-68
2023/07/30 12:04:20;;;;;;;8.40;1.90;;;23.40;99.90;;;;;;7372193;19;20022;-68
2023/07/30 12:06:48;;;;;;;9.05;2.30;;;23.40;99.90;;;;;;7370517;19;21336;-68
2023/07/30 12:09:17;;;;;;;7.22;1.65;;;23.30;99.90;;;;;;7374854;19;20436;-69
2023/07/30 12:11:54;;;;;;;8.30;2.45;;;22.60;99.90;;;;;;7367811;19;20042;-57
2023/07/30 12:14:29;;;;;;;8.52;1.92;;;22.60;99.90;;;;;;7371547;19;20502;-57
2023/07/30 12:16:57;;;;;;;7.65;1.88;;;22.60;99.90;;;;;;7371694;19;20025;-57
2023/07/30 12:19:23;;;;;;;6.57;1.92;;;22.40;99.90;;;;;;7369844;19;20100;-57
2023/07/30 12:21:49;;;;;;;5.03;1.80;;;23.20;99.90;;;;;;7367882;19;20109;-58
2023/07/30 12:24:16;;;;;;;6.22;1.60;;;23.40;99.90;;;;;;7372682;19;20555;-57
2023/07/30 12:26:42;;;;;;;7.57;1.95;;;23.20;99.90;;;;;;7369197;19;20021;-57
2023/07/30 12:29:09;;;;;;;8.25;2.03;;;23.40;99.90;;;;;;7369041;19;20067;-57
2023/07/30 12:31:35;;;;;;;9.23;1.88;;;23.50;99.90;;;;;;7368802;19;20023;-57
2023/07/30 12:34:01;;;;;;;5.10;2.08;;;23.80;99.90;;;;;;7366804;19;20018;-58
2023/07/30 12:36:28;;;;;;;13.82;2.00;;;23.50;99.90;;;;;;7368281;19;20532;-57
2023/07/30 12:38:54;;;;;;;8.32;1.60;;;23.30;99.90;;;;;;7367243;19;20385;-58
2023/07/30 12:41:27;;;;;;;10.88;1.95;;;23.00;99.90;;;;;;7373705;19;20018;-58